AAL1276 KCLT-KLAX
Flight info
| Callsign | AAL1276 |
|---|---|
| Flight time | N/A |
| Altitude | 30000 |
| Route | BOBZY5 BNA KK42I SGF HOTAP VARNR EDARE ALS LRAIN TOADD DNERO ANJLL4 |
| Aircraft | A321/M-SDE3FGHIRWY/LB1 |
Departure
| Time | 2026-05-05 20:47 |
|---|---|
| Airport | Charlotte Douglas International Airport (KCLT) |
Arrival
| Time | N/A |
|---|---|
| Airport | Los Angeles International Airport (KLAX) |
| Time | Latitude | Longitude | Altitude | Speed | Heading |
|---|---|---|---|---|---|
| 2026-05-05 20:18 | 35.22058 | -80.94873 | 733 ft | 0 kts | 178° |
| 2026-05-05 20:37 | 35.22059 | -80.94873 | 733 ft | 1 kts | 178° |
| 2026-05-05 20:37 | 35.22073 | -80.94873 | 732 ft | 3 kts | 177° |
| 2026-05-05 20:37 | 35.22102 | -80.94881 | 731 ft | 3 kts | 149° |
| 2026-05-05 20:37 | 35.22119 | -80.94895 | 732 ft | 3 kts | 123° |
| 2026-05-05 20:38 | 35.22125 | -80.94918 | 731 ft | 3 kts | 79° |
| 2026-05-05 20:38 | 35.22118 | -80.94945 | 732 ft | 3 kts | 59° |
| 2026-05-05 20:38 | 35.22103 | -80.94965 | 733 ft | 3 kts | 26° |
| 2026-05-05 20:38 | 35.22081 | -80.94973 | 732 ft | 3 kts | 5° |
| 2026-05-05 20:39 | 35.22060 | -80.94975 | 732 ft | 3 kts | 2° |
| 2026-05-05 20:39 | 35.22045 | -80.94975 | 732 ft | 3 kts | 353° |
| 2026-05-05 20:39 | 35.22023 | -80.94972 | 732 ft | 0 kts | 356° |
| 2026-05-05 20:42 | 35.22034 | -80.94973 | 732 ft | 4 kts | 356° |
| 2026-05-05 20:42 | 35.22066 | -80.94975 | 732 ft | 6 kts | 356° |
| 2026-05-05 20:42 | 35.22107 | -80.94997 | 733 ft | 6 kts | 308° |
| 2026-05-05 20:43 | 35.22123 | -80.95040 | 733 ft | 5 kts | 295° |
| 2026-05-05 20:43 | 35.22154 | -80.95065 | 734 ft | 8 kts | 347° |
| 2026-05-05 20:43 | 35.22235 | -80.95075 | 734 ft | 15 kts | 355° |
| 2026-05-05 20:43 | 35.22336 | -80.95083 | 734 ft | 15 kts | 355° |
| 2026-05-05 20:44 | 35.22436 | -80.95092 | 733 ft | 14 kts | 356° |
| 2026-05-05 20:44 | 35.22532 | -80.95099 | 733 ft | 13 kts | 356° |
| 2026-05-05 20:44 | 35.22619 | -80.95107 | 733 ft | 12 kts | 355° |
| 2026-05-05 20:44 | 35.22702 | -80.95116 | 733 ft | 12 kts | 351° |
| 2026-05-05 20:45 | 35.22729 | -80.95239 | 737 ft | 7 kts | 265° |
| 2026-05-05 20:45 | 35.22726 | -80.95301 | 740 ft | 6 kts | 265° |
| 2026-05-05 20:45 | 35.22697 | -80.95318 | 740 ft | 6 kts | 173° |
| 2026-05-05 20:46 | 35.22631 | -80.95311 | 741 ft | 19 kts | 177° |
| 2026-05-05 20:46 | 35.22264 | -80.95279 | 741 ft | 85 kts | 175° |
| 2026-05-05 20:46 | 35.21492 | -80.95211 | 738 ft | 136 kts | 176° |
| 2026-05-05 20:46 | 35.20417 | -80.95125 | 866 ft | 164 kts | 177° |
| 2026-05-05 20:47 | 35.19278 | -80.95064 | 1458 ft | 166 kts | 179° |
| 2026-05-05 20:47 | 35.18132 | -80.94943 | 2130 ft | 165 kts | 178° |
| 2026-05-05 20:47 | 35.16981 | -80.94797 | 2556 ft | 172 kts | 179° |
| 2026-05-05 20:47 | 35.15756 | -80.95047 | 2681 ft | 190 kts | 210° |
| 2026-05-05 20:48 | 35.14863 | -80.96324 | 2821 ft | 216 kts | 249° |
| 2026-05-05 20:48 | 35.14771 | -80.98254 | 3036 ft | 240 kts | 271° |
| 2026-05-05 20:48 | 35.15001 | -81.00335 | 3432 ft | 255 kts | 275° |
| 2026-05-05 20:48 | 35.15324 | -81.02499 | 3996 ft | 262 kts | 277° |
| 2026-05-05 20:49 | 35.15671 | -81.04706 | 4657 ft | 266 kts | 277° |
| 2026-05-05 20:49 | 35.16012 | -81.06943 | 5378 ft | 269 kts | 276° |
| 2026-05-05 20:49 | 35.16340 | -81.09201 | 6105 ft | 270 kts | 276° |
| 2026-05-05 20:49 | 35.16657 | -81.11475 | 6797 ft | 272 kts | 275° |
| 2026-05-05 20:50 | 35.16960 | -81.13732 | 7480 ft | 273 kts | 275° |
| 2026-05-05 20:50 | 35.17263 | -81.16025 | 8174 ft | 274 kts | 275° |
| 2026-05-05 20:50 | 35.17567 | -81.18331 | 8849 ft | 275 kts | 276° |
| 2026-05-05 20:50 | 35.17872 | -81.20643 | 9534 ft | 277 kts | 276° |
| 2026-05-05 20:51 | 35.18177 | -81.22974 | 10168 ft | 279 kts | 276° |
| 2026-05-05 20:51 | 35.18490 | -81.25398 | 10334 ft | 298 kts | 276° |
| 2026-05-05 20:51 | 35.18818 | -81.27976 | 10464 ft | 317 kts | 276° |
| 2026-05-05 20:51 | 35.19168 | -81.30716 | 10593 ft | 334 kts | 277° |
| 2026-05-05 20:52 | 35.19434 | -81.33586 | 10854 ft | 344 kts | 269° |
| 2026-05-05 20:52 | 35.19371 | -81.36524 | 11333 ft | 347 kts | 266° |
| 2026-05-05 20:52 | 35.19290 | -81.39481 | 11835 ft | 350 kts | 267° |
| 2026-05-05 20:52 | 35.19210 | -81.42470 | 12369 ft | 353 kts | 267° |
| 2026-05-05 20:53 | 35.19128 | -81.45482 | 12903 ft | 356 kts | 267° |
| 2026-05-05 20:53 | 35.19046 | -81.48518 | 13450 ft | 358 kts | 267° |
| 2026-05-05 20:53 | 35.18962 | -81.51564 | 13950 ft | 360 kts | 267° |
| 2026-05-05 20:53 | 35.18872 | -81.54640 | 14398 ft | 362 kts | 267° |
| 2026-05-05 20:54 | 35.18767 | -81.57727 | 14852 ft | 364 kts | 267° |
| 2026-05-05 20:54 | 35.18654 | -81.60822 | 15303 ft | 366 kts | 267° |
| 2026-05-05 20:54 | 35.18543 | -81.63900 | 15754 ft | 368 kts | 267° |
| 2026-05-05 20:54 | 35.18452 | -81.67032 | 16186 ft | 369 kts | 268° |
| 2026-05-05 20:55 | 35.18386 | -81.70169 | 16631 ft | 370 kts | 268° |
| 2026-05-05 20:55 | 35.18333 | -81.73321 | 17052 ft | 371 kts | 269° |
| 2026-05-05 20:55 | 35.18284 | -81.76480 | 17455 ft | 373 kts | 269° |
| 2026-05-05 20:55 | 35.18232 | -81.79654 | 17824 ft | 374 kts | 269° |
| 2026-05-05 20:56 | 35.18171 | -81.82843 | 18214 ft | 376 kts | 269° |
| 2026-05-05 20:56 | 35.18103 | -81.86044 | 18558 ft | 377 kts | 269° |
| 2026-05-05 20:56 | 35.18033 | -81.89252 | 18877 ft | 379 kts | 269° |
| 2026-05-05 20:56 | 35.17960 | -81.92475 | 19204 ft | 380 kts | 269° |
| 2026-05-05 20:57 | 35.17884 | -81.95711 | 19519 ft | 381 kts | 269° |
| 2026-05-05 20:57 | 35.17809 | -81.98950 | 19844 ft | 383 kts | 269° |
| 2026-05-05 20:57 | 35.17735 | -82.02209 | 20166 ft | 384 kts | 269° |
| 2026-05-05 20:57 | 35.17662 | -82.05481 | 20482 ft | 386 kts | 269° |
| 2026-05-05 20:58 | 35.17586 | -82.08769 | 20806 ft | 388 kts | 269° |
| 2026-05-05 20:58 | 35.17508 | -82.12061 | 21139 ft | 389 kts | 269° |
| 2026-05-05 20:58 | 35.17428 | -82.15374 | 21469 ft | 391 kts | 269° |
| 2026-05-05 20:58 | 35.17352 | -82.18703 | 21802 ft | 392 kts | 271° |
| 2026-05-05 20:59 | 35.17575 | -82.22023 | 22124 ft | 393 kts | 281° |
| 2026-05-05 20:59 | 35.18240 | -82.25215 | 22448 ft | 394 kts | 286° |
| 2026-05-05 20:59 | 35.19012 | -82.28438 | 22788 ft | 396 kts | 286° |
| 2026-05-05 20:59 | 35.19783 | -82.31677 | 23109 ft | 397 kts | 286° |
| 2026-05-05 21:00 | 35.20551 | -82.34923 | 23437 ft | 399 kts | 286° |
| 2026-05-05 21:00 | 35.21322 | -82.38193 | 23726 ft | 400 kts | 286° |
| 2026-05-05 21:00 | 35.22095 | -82.41471 | 23998 ft | 402 kts | 286° |
| 2026-05-05 21:00 | 35.22870 | -82.44763 | 24246 ft | 403 kts | 286° |
| 2026-05-05 21:01 | 35.23644 | -82.48058 | 24507 ft | 404 kts | 286° |
| 2026-05-05 21:01 | 35.24420 | -82.51369 | 24796 ft | 405 kts | 286° |
| 2026-05-05 21:01 | 35.25197 | -82.54689 | 25074 ft | 406 kts | 286° |
| 2026-05-05 21:01 | 35.25975 | -82.58014 | 25347 ft | 407 kts | 286° |
| 2026-05-05 21:02 | 35.26756 | -82.61347 | 25624 ft | 408 kts | 287° |
| 2026-05-05 21:02 | 35.27535 | -82.64678 | 25903 ft | 408 kts | 287° |
| 2026-05-05 21:02 | 35.28314 | -82.68022 | 26214 ft | 409 kts | 286° |
| 2026-05-05 21:02 | 35.29092 | -82.71370 | 26485 ft | 409 kts | 286° |